LDSP/SPU METAR and TAF weather

Enter ICAO airport designator
Station Type Date Time Source
LDSP METAR 2019/08/24 22:00 UTC NOAA

LDSP 242200Z 00000KT CAVOK 27/15 Q1016 NOSIG


Station Type Date Time Source
LDSP Decoded METAR 2019/08/24 22:00 UTC NOAA

Station name not available
Aug 24, 2019 - 06:00 PM EDT / 2019.08.24 2200 UTC
Wind: Calm:0
Visibility: greater than 7 mile(s):0
Temperature: 80 F (27 C)
Dew Point: 59 F (15 C)
Relative Humidity: 47%
Pressure (altimeter): 30.00 in. Hg (1016 hPa)
ob: LDSP 242200Z 00000KT CAVOK 27/15 Q1016 NOSIG
cycle: 22

Station Type Date Time Source
LDSP TAF 2019/08/24 18:27 UTC NOAA

TAF LDSP 241725Z 2418/2518 04008KT CAVOK TX31/2515Z TN25/2504Z
BECMG 2418/2420 03005KT
BECMG 2510/2512 23010KT
BECMG 2515/2517 31007KT

Example: see airport list